Ana Sayfa
METAR-TAF:

METAR-TAF

Havaalanları :

Chetwynd, İngiliz Kolombiyası, Kanada

Enlem: 55-42N, Boylam: 121-38W, yükseklik: 609 m

Güncel hava durumu gözlemi

Rapor saat 01:00 UTC de 10 saat ve 29 dakika önce yapıldı.
Rüzgar değişken yönden 3 kt
Sıcaklık 17°C
Nem 48%
Basınç 1010 hPa
Görüş mesafesi: 56.3 km
4000 ft yükseklikte parçalı çok bulutlu

METAR: CYCQ 200100Z VRB03KT 35SM BKN040 17/06 A2983 RMK SC5 CVCTV CLD EMBD LAST STFD OBS/NEXT 201300Z SLP113 DENSITY ALT 2800FT

Saat: 04:29 (11:29 UTC)


TAF: eksik

4.000'den fazla havaalanı için hava durumu gözlemleri ve tahminleri (METAR ve TAF raporları).

Kullanılabilir istasyonlar harita üzerinde sarı ve kırmızı noktalarla gösterilir.

İstasyonun adını görmek için fareyi noktanın üzerinde gezdirin.

Sonrasında hava gözlem ve tahminlerini görmek için tıklayın.

Haritayı değiştirmek için: yaklaştırmak için siyah artı işaretli yeşil düğmeye ve uzaklaştırmak için de eksi işaretli düğmeye hızla tıklayın; bitişik haritalar için yeşil okları kullanın.


METAR-TAF: